McKinnon, Georgia
Current Conditions -  °F | °C
As of 3:55 PM on Tuesday 21 Oct 2014 (Local Time) from KJES Reporting Station
Clear Clear  
Wind Chill: 82°   Ceiling: Unl
Heat Index: 82°   Visibility: 10mi
Dew Point: 55°   Wind: 3mph
Humidity: 39%   Direction: 280°W
Pressure: 29.91"   Gusts: NA
Location:  31.5041°N, 81.8277°W
Report Text: KJES 211955Z AUTO 28003KT 10SM CLR 28/13 A2991 RMK AO2
Loading
Personal Weather Stations






























Interactive Weather Map
Tropical Storm Tracking
New forecast layout! Learn more

10-Day Weather Forecast

Advertisements
Track Severe Weather on mobile